createdAt,value
2019-03-20T00:00:09.648Z,99.90
2019-03-20T00:02:37.720Z,99.90
2019-03-20T00:05:07.189Z,99.90
2019-03-20T00:07:35.641Z,99.90
2019-03-20T00:10:04.442Z,99.90
2019-03-20T00:12:32.838Z,99.90
2019-03-20T00:15:01.783Z,99.90
2019-03-20T00:17:30.901Z,99.90
2019-03-20T00:19:59.969Z,99.90
2019-03-20T00:22:28.573Z,99.90
2019-03-20T00:24:57.001Z,99.90
2019-03-20T00:27:25.443Z,99.90
2019-03-20T00:29:54.167Z,99.90
2019-03-20T00:32:22.775Z,99.90
2019-03-20T00:35:00.486Z,99.90
2019-03-20T00:37:22.158Z,99.90
2019-03-20T00:39:51.736Z,99.90
2019-03-20T00:42:20.379Z,99.90
2019-03-20T00:44:48.909Z,99.90
2019-03-20T00:47:17.935Z,99.90
2019-03-20T00:49:46.090Z,99.90
2019-03-20T00:52:14.391Z,99.90
2019-03-20T00:54:43.321Z,99.90
2019-03-20T00:57:11.659Z,99.90
2019-03-20T00:59:39.890Z,99.90
2019-03-20T01:02:09.375Z,99.90
2019-03-20T01:04:37.755Z,99.90
2019-03-20T01:07:07.038Z,99.90
2019-03-20T01:09:36.873Z,99.90
2019-03-20T01:12:05.054Z,99.90
2019-03-20T01:14:33.286Z,99.90
2019-03-20T01:17:01.615Z,99.90
2019-03-20T01:19:29.844Z,99.90
2019-03-20T01:21:58.575Z,99.90
2019-03-20T01:24:26.718Z,99.90
2019-03-20T01:26:55.352Z,99.90
2019-03-20T01:29:23.831Z,99.90
2019-03-20T01:31:52.783Z,99.90
2019-03-20T01:34:21.491Z,99.90
2019-03-20T01:36:49.883Z,99.90
2019-03-20T01:39:17.936Z,99.90
2019-03-20T01:41:46.540Z,99.90
2019-03-20T01:44:15.256Z,99.90
2019-03-20T01:46:45.850Z,99.90
2019-03-20T01:49:15.371Z,99.90
2019-03-20T01:51:44.060Z,99.90
2019-03-20T01:54:12.517Z,99.90
2019-03-20T01:56:40.660Z,99.90
2019-03-20T01:59:09.246Z,99.90
2019-03-20T02:01:37.449Z,99.90
2019-03-20T02:04:05.830Z,99.90
2019-03-20T02:06:35.016Z,99.90
2019-03-20T02:09:04.965Z,99.90
2019-03-20T02:11:33.833Z,99.90
2019-03-20T02:14:02.112Z,99.90
2019-03-20T02:16:32.435Z,99.90
2019-03-20T02:19:00.578Z,99.90
2019-03-20T02:21:29.339Z,99.90
2019-03-20T02:23:57.695Z,99.90
2019-03-20T02:26:26.010Z,99.90
2019-03-20T02:28:54.794Z,99.90
2019-03-20T02:31:25.542Z,99.90
2019-03-20T02:33:54.102Z,99.90
2019-03-20T02:36:22.297Z,99.90
2019-03-20T02:38:50.580Z,99.90
2019-03-20T02:41:18.631Z,99.90
2019-03-20T02:43:48.613Z,99.90
2019-03-20T02:46:17.257Z,99.90
2019-03-20T02:48:46.026Z,99.90
2019-03-20T02:51:14.940Z,99.90
2019-03-20T02:53:44.323Z,99.90
2019-03-20T02:56:12.500Z,99.90
2019-03-20T02:58:42.367Z,99.90
2019-03-20T03:01:10.458Z,99.90
2019-03-20T03:03:38.775Z,99.90
2019-03-20T03:06:07.644Z,99.90
2019-03-20T03:08:35.825Z,99.90
2019-03-20T03:11:04.285Z,99.90
2019-03-20T03:13:32.803Z,99.90
2019-03-20T03:16:01.142Z,99.90
2019-03-20T03:18:31.129Z,99.90
2019-03-20T03:20:59.831Z,99.90
2019-03-20T03:23:28.138Z,99.90
2019-03-20T03:25:56.840Z,99.90
2019-03-20T03:28:25.111Z,99.90
2019-03-20T03:30:53.172Z,99.90
2019-03-20T03:33:21.388Z,99.90
2019-03-20T03:35:51.228Z,99.90
2019-03-20T03:38:20.648Z,99.90
2019-03-20T03:40:49.520Z,99.90
2019-03-20T03:43:17.772Z,99.90
2019-03-20T03:45:46.803Z,99.90
2019-03-20T03:48:14.759Z,99.90
2019-03-20T03:50:44.141Z,99.90
2019-03-20T03:53:12.423Z,99.90
2019-03-20T03:55:41.343Z,99.90
2019-03-20T03:58:10.924Z,99.90
2019-03-20T04:00:39.836Z,99.90
2019-03-20T04:03:08.520Z,99.90
2019-03-20T04:05:36.900Z,99.90
2019-03-20T04:08:05.992Z,99.90
2019-03-20T04:10:35.509Z,99.90
2019-03-20T04:13:03.955Z,99.90
2019-03-20T04:15:36.257Z,99.90
2019-03-20T04:18:02.814Z,99.90
2019-03-20T04:20:31.765Z,99.90
2019-03-20T04:22:59.735Z,99.90
2019-03-20T04:25:27.884Z,99.90
2019-03-20T04:27:58.305Z,99.90
2019-03-20T04:30:26.594Z,99.90
2019-03-20T04:32:55.286Z,99.90
2019-03-20T04:35:23.355Z,99.90
2019-03-20T04:37:51.593Z,99.90
2019-03-20T04:40:19.995Z,99.90
2019-03-20T04:42:48.695Z,99.90
2019-03-20T04:45:17.091Z,99.90
2019-03-20T04:47:45.366Z,99.90
2019-03-20T04:50:13.559Z,99.90
2019-03-20T04:52:41.548Z,99.90
2019-03-20T04:55:10.233Z,99.90
2019-03-20T04:57:38.598Z,99.90
2019-03-20T05:00:10.462Z,99.90
2019-03-20T05:02:38.925Z,99.90
2019-03-20T05:05:07.613Z,99.90
2019-03-20T05:07:36.284Z,99.90
2019-03-20T05:10:06.430Z,99.90
2019-03-20T05:12:34.996Z,99.90
2019-03-20T05:15:04.196Z,99.90
2019-03-20T05:17:32.182Z,99.90
2019-03-20T05:20:00.490Z,99.90
2019-03-20T05:22:29.268Z,99.90
2019-03-20T05:24:57.913Z,99.90
2019-03-20T05:27:26.409Z,99.90
2019-03-20T05:29:54.577Z,99.90
2019-03-20T05:32:24.033Z,99.90
2019-03-20T05:34:52.210Z,99.90
2019-03-20T05:37:20.482Z,99.90
2019-03-20T05:39:49.647Z,99.90
2019-03-20T05:42:19.351Z,99.90
2019-03-20T05:44:48.355Z,99.90
2019-03-20T05:47:16.392Z,99.90
2019-03-20T05:49:45.583Z,99.90
2019-03-20T05:52:13.634Z,99.90
2019-03-20T05:54:42.936Z,99.90
2019-03-20T05:57:12.632Z,99.90
2019-03-20T05:59:41.480Z,99.90
2019-03-20T06:02:09.988Z,99.90
2019-03-20T06:04:38.476Z,99.90
2019-03-20T06:07:06.671Z,99.90
2019-03-20T06:09:34.793Z,99.90
2019-03-20T06:12:03.248Z,99.90
2019-03-20T06:14:32.085Z,99.90
2019-03-20T06:17:00.583Z,99.90
2019-03-20T06:19:28.841Z,99.90
2019-03-20T06:21:56.862Z,99.90
2019-03-20T06:24:25.641Z,99.90
2019-03-20T06:26:54.484Z,99.90
2019-03-20T06:29:24.439Z,99.90
2019-03-20T06:31:53.736Z,99.90
2019-03-20T06:34:22.927Z,99.90
2019-03-20T06:36:51.209Z,99.90
2019-03-20T06:39:19.542Z,99.90
2019-03-20T06:41:47.811Z,99.90
2019-03-20T06:44:15.881Z,99.90
2019-03-20T06:46:44.261Z,99.90
2019-03-20T06:49:12.538Z,99.90
2019-03-20T06:51:40.590Z,99.90
2019-03-20T06:54:08.704Z,99.90
2019-03-20T06:56:37.111Z,99.90
2019-03-20T07:00:09.440Z,99.90
2019-03-20T07:02:42.183Z,99.90
2019-03-20T07:06:24.409Z,99.90
2019-03-20T07:09:01.132Z,99.90
2019-03-20T07:11:27.656Z,99.90
2019-03-20T07:13:56.370Z,99.90
2019-03-20T07:16:24.972Z,99.90
2019-03-20T07:18:53.158Z,99.90
2019-03-20T07:21:21.593Z,99.90
2019-03-20T07:23:51.275Z,99.90
2019-03-20T07:26:19.568Z,99.90
2019-03-20T07:28:48.395Z,99.90
2019-03-20T07:31:17.034Z,99.90
2019-03-20T07:33:45.827Z,99.90
2019-03-20T07:36:14.584Z,99.90
2019-03-20T07:38:43.034Z,99.90
2019-03-20T07:41:12.000Z,99.90
2019-03-20T07:43:42.076Z,99.90
2019-03-20T07:46:12.157Z,99.90
2019-03-20T07:48:42.350Z,99.90
2019-03-20T07:51:12.101Z,99.90
2019-03-20T07:53:41.624Z,99.90
2019-03-20T07:56:11.639Z,99.90
2019-03-20T07:58:43.094Z,99.90
2019-03-20T08:01:11.848Z,99.90
2019-03-20T08:03:42.079Z,99.90
2019-03-20T08:06:14.157Z,99.20
2019-03-20T08:08:43.341Z,99.70
2019-03-20T08:11:11.840Z,95.30
2019-03-20T08:13:40.005Z,92.30
2019-03-20T08:16:09.896Z,88.10
2019-03-20T08:18:38.217Z,81.20
2019-03-20T08:21:07.043Z,77.60
2019-03-20T08:23:36.077Z,78.30
2019-03-20T08:26:04.571Z,81.20
2019-03-20T08:28:33.949Z,72.10
2019-03-20T08:31:02.396Z,71.80
2019-03-20T08:33:35.096Z,68.40
2019-03-20T08:36:04.090Z,66.40
2019-03-20T08:38:32.353Z,61.50
2019-03-20T08:41:00.670Z,60.00
2019-03-20T08:43:30.627Z,58.40
2019-03-20T08:45:59.603Z,57.90
2019-03-20T08:48:29.118Z,58.10
2019-03-20T08:50:58.087Z,56.70
2019-03-20T08:53:27.191Z,53.20
2019-03-20T08:55:57.414Z,52.50
2019-03-20T08:58:27.706Z,50.10
2019-03-20T09:00:58.331Z,52.40
2019-03-20T09:03:28.065Z,51.70
2019-03-20T09:05:56.955Z,51.50
2019-03-20T09:08:29.686Z,53.00
2019-03-20T09:10:56.215Z,51.50
2019-03-20T09:13:25.519Z,49.30
2019-03-20T09:15:54.285Z,47.00
2019-03-20T09:18:22.889Z,45.00
2019-03-20T09:20:51.000Z,45.10
2019-03-20T09:23:19.249Z,44.40
2019-03-20T09:25:48.498Z,43.10
2019-03-20T09:28:16.952Z,44.10
2019-03-20T09:30:46.178Z,43.50
2019-03-20T09:33:16.710Z,43.40
2019-03-20T09:35:46.316Z,41.80
2019-03-20T09:38:15.821Z,42.30
2019-03-20T09:40:44.302Z,44.40
2019-03-20T09:43:12.376Z,44.60
2019-03-20T09:45:41.447Z,42.20
2019-03-20T09:48:09.852Z,41.50
2019-03-20T09:50:37.916Z,41.40
2019-03-20T09:53:08.027Z,42.20
2019-03-20T09:55:37.648Z,41.00
2019-03-20T09:58:11.634Z,40.20
2019-03-20T10:00:36.731Z,39.10
2019-03-20T10:03:05.032Z,39.30
2019-03-20T10:05:33.827Z,40.20
2019-03-20T10:08:02.503Z,40.10
2019-03-20T10:10:32.844Z,39.90
2019-03-20T10:13:00.944Z,39.60
2019-03-20T10:15:30.161Z,39.10
2019-03-20T10:17:58.612Z,39.80
2019-03-20T10:20:27.352Z,40.50
2019-03-20T10:22:55.945Z,40.60
2019-03-20T10:25:25.482Z,41.50
2019-03-20T10:27:54.727Z,42.70
2019-03-20T10:30:23.008Z,44.20
2019-03-20T10:32:51.251Z,41.40
2019-03-20T10:35:19.869Z,41.40
2019-03-20T10:37:50.314Z,39.70
2019-03-20T10:40:19.960Z,39.60
2019-03-20T10:42:50.308Z,41.70
2019-03-20T10:45:19.673Z,43.30
2019-03-20T10:47:49.543Z,42.90
2019-03-20T10:50:21.501Z,44.60
2019-03-20T10:52:51.626Z,41.80
2019-03-20T10:55:20.191Z,39.60
2019-03-20T10:57:49.491Z,40.00
2019-03-20T11:00:20.068Z,40.80
2019-03-20T11:02:48.472Z,41.10
2019-03-20T11:05:17.716Z,42.50
2019-03-20T11:07:46.124Z,41.00
2019-03-20T11:10:17.316Z,41.50
2019-03-20T11:12:45.848Z,42.00
2019-03-20T11:15:15.220Z,41.30
2019-03-20T11:17:43.283Z,42.20
2019-03-20T11:20:13.632Z,42.90
2019-03-20T11:22:42.442Z,44.20
2019-03-20T11:25:15.399Z,45.70
2019-03-20T11:27:43.573Z,47.80
2019-03-20T11:30:19.308Z,50.50
2019-03-20T11:32:47.845Z,52.10
2019-03-20T11:35:16.942Z,54.40
2019-03-20T11:37:45.096Z,55.80
2019-03-20T11:40:17.658Z,58.90
2019-03-20T11:42:46.131Z,60.40
2019-03-20T11:45:14.351Z,64.00
2019-03-20T11:47:42.737Z,62.80
2019-03-20T11:50:15.275Z,61.90
2019-03-20T11:52:44.129Z,61.70
2019-03-20T11:55:12.654Z,65.20
2019-03-20T11:57:41.770Z,70.10
2019-03-20T12:00:13.094Z,71.30
2019-03-20T12:02:41.904Z,67.60
2019-03-20T12:05:10.420Z,68.10
2019-03-20T12:07:39.622Z,72.10
2019-03-20T12:10:13.216Z,79.50
2019-03-20T12:12:41.796Z,83.30
2019-03-20T12:15:10.773Z,90.20
2019-03-20T12:17:41.075Z,85.00
2019-03-20T12:20:13.496Z,79.40
2019-03-20T12:22:41.489Z,75.10
2019-03-20T12:25:13.310Z,76.00
2019-03-20T12:27:42.282Z,80.80
2019-03-20T12:30:13.351Z,72.70
2019-03-20T12:32:41.480Z,70.30
2019-03-20T12:35:12.094Z,74.20
2019-03-20T12:37:41.047Z,81.70
2019-03-20T12:40:22.771Z,72.20
2019-03-20T12:42:51.003Z,75.50
2019-03-20T12:45:21.573Z,75.80
2019-03-20T12:47:49.772Z,72.90
2019-03-20T12:50:17.961Z,74.80
2019-03-20T12:52:46.164Z,81.20
2019-03-20T12:55:17.207Z,75.20
2019-03-20T12:57:46.400Z,73.50
2019-03-20T13:00:17.602Z,72.50
2019-03-20T13:02:46.863Z,68.30
2019-03-20T13:05:15.083Z,73.70
2019-03-20T13:07:43.425Z,73.10
2019-03-20T13:10:14.094Z,71.70
2019-03-20T13:12:42.543Z,70.10
2019-03-20T13:15:14.729Z,72.20
2019-03-20T13:17:42.761Z,72.40
2019-03-20T13:20:10.949Z,71.40
2019-03-20T13:22:39.657Z,73.70
2019-03-20T13:25:10.184Z,74.30
2019-03-20T13:27:38.755Z,75.10
2019-03-20T13:30:20.162Z,74.80
2019-03-20T13:32:44.658Z,75.00
2019-03-20T13:35:13.193Z,73.40
2019-03-20T13:37:41.323Z,68.20
2019-03-20T13:40:14.428Z,63.10
2019-03-20T13:42:40.991Z,67.80
2019-03-20T13:45:13.563Z,67.90
2019-03-20T13:47:41.700Z,71.10
2019-03-20T13:50:11.973Z,65.40
2019-03-20T13:52:40.784Z,68.70
2019-03-20T13:55:10.105Z,69.00
2019-03-20T13:57:38.528Z,68.20
2019-03-20T14:00:19.624Z,67.90
2019-03-20T14:02:48.217Z,68.00
2019-03-20T14:05:16.336Z,72.90
2019-03-20T14:07:45.586Z,80.20
2019-03-20T14:10:24.513Z,80.40
2019-03-20T14:12:47.497Z,76.40
2019-03-20T14:15:16.776Z,81.70
2019-03-20T14:17:45.362Z,77.50
2019-03-20T14:20:17.939Z,81.50
2019-03-20T14:22:46.920Z,80.00
2019-03-20T14:25:15.920Z,78.00
2019-03-20T14:27:44.178Z,78.60
2019-03-20T14:30:21.211Z,75.80
2019-03-20T14:32:49.714Z,78.10
2019-03-20T14:35:18.198Z,73.10
2019-03-20T14:37:51.795Z,71.80
2019-03-20T14:40:24.072Z,73.70
2019-03-20T14:42:52.668Z,78.70
2019-03-20T14:45:21.240Z,75.80
2019-03-20T14:47:49.612Z,72.70
2019-03-20T14:50:25.878Z,76.40
2019-03-20T14:52:54.406Z,76.70
2019-03-20T14:55:23.048Z,83.40
2019-03-20T14:57:53.981Z,82.10
2019-03-20T15:00:24.653Z,84.40
2019-03-20T15:02:54.316Z,87.20
2019-03-20T15:05:22.896Z,86.30
2019-03-20T15:07:51.779Z,89.50
2019-03-20T15:10:20.765Z,90.90
2019-03-20T15:12:49.514Z,93.30
2019-03-20T15:15:33.869Z,91.40
2019-03-20T15:18:02.027Z,88.30
2019-03-20T15:20:30.671Z,92.00
2019-03-20T15:23:00.265Z,90.50
2019-03-20T15:25:28.355Z,90.60
2019-03-20T15:27:57.034Z,84.60
2019-03-20T15:30:26.630Z,88.30
2019-03-20T15:32:55.321Z,90.20
2019-03-20T15:35:24.218Z,90.30
2019-03-20T15:37:52.511Z,89.00
2019-03-20T15:40:21.080Z,88.10
2019-03-20T15:42:49.635Z,86.10
2019-03-20T15:45:17.804Z,84.50
2019-03-20T15:47:45.972Z,82.90
2019-03-20T15:50:15.665Z,82.40
2019-03-20T15:52:44.931Z,84.00
2019-03-20T15:55:21.434Z,86.80
2019-03-20T15:57:51.152Z,80.30
2019-03-20T16:00:19.861Z,83.50
2019-03-20T16:02:50.549Z,89.20
2019-03-20T16:05:19.144Z,86.90
2019-03-20T16:07:49.749Z,90.40
2019-03-20T16:10:20.117Z,90.00
2019-03-20T16:12:48.733Z,89.20
2019-03-20T16:15:18.944Z,84.20
2019-03-20T16:17:47.707Z,84.60
2019-03-20T16:20:16.042Z,83.50
2019-03-20T16:22:44.439Z,89.70
2019-03-20T16:25:13.965Z,90.00
2019-03-20T16:27:45.320Z,93.80
2019-03-20T16:30:18.682Z,94.70
2019-03-20T16:32:47.470Z,93.40
2019-03-20T16:35:22.489Z,90.80
2019-03-20T16:37:55.016Z,91.80
2019-03-20T16:40:24.337Z,91.40
2019-03-20T16:42:53.580Z,91.30
2019-03-20T16:45:28.608Z,93.40
2019-03-20T16:47:57.597Z,93.20
2019-03-20T16:50:25.867Z,95.40
2019-03-20T16:52:54.115Z,94.60
2019-03-20T16:55:23.904Z,96.50
2019-03-20T16:57:53.760Z,97.60
2019-03-20T17:00:32.667Z,99.40
2019-03-20T17:03:01.535Z,99.90
2019-03-20T17:05:30.241Z,99.90
2019-03-20T17:07:58.460Z,99.90
2019-03-20T17:10:33.355Z,99.90
2019-03-20T17:13:01.483Z,99.90
2019-03-20T17:15:30.391Z,99.90
2019-03-20T17:17:59.035Z,99.90
2019-03-20T17:20:27.804Z,99.90
2019-03-20T17:22:56.930Z,99.90
2019-03-20T17:25:25.076Z,99.90
2019-03-20T17:27:53.531Z,99.90
2019-03-20T17:30:27.773Z,99.90
2019-03-20T17:32:55.940Z,99.90
2019-03-20T17:35:24.147Z,99.90
2019-03-20T17:37:52.427Z,99.90
2019-03-20T17:40:20.971Z,99.90
2019-03-20T17:42:49.316Z,99.90
2019-03-20T17:45:19.196Z,99.90
2019-03-20T17:47:48.230Z,99.90
2019-03-20T17:50:23.458Z,99.90
2019-03-20T17:52:51.829Z,99.90
2019-03-20T17:55:23.605Z,99.90
2019-03-20T17:57:52.141Z,99.90
2019-03-20T18:00:37.027Z,99.90
2019-03-20T18:03:06.152Z,99.90
2019-03-20T18:05:34.787Z,99.90
2019-03-20T18:08:03.810Z,99.90
2019-03-20T18:10:34.414Z,99.90
2019-03-20T18:13:03.310Z,99.90
2019-03-20T18:15:32.658Z,99.90
2019-03-20T18:18:02.892Z,99.90
2019-03-20T18:20:31.612Z,99.90
2019-03-20T18:23:04.982Z,99.90
2019-03-20T18:25:34.820Z,99.90
2019-03-20T18:28:03.405Z,99.90
2019-03-20T18:30:32.198Z,99.90
2019-03-20T18:33:01.400Z,99.90
2019-03-20T18:35:31.649Z,99.90
2019-03-20T18:38:00.699Z,99.90
2019-03-20T18:40:29.796Z,99.90
2019-03-20T18:42:58.862Z,99.90
2019-03-20T18:45:27.375Z,99.90
2019-03-20T18:47:55.770Z,99.90
2019-03-20T18:50:24.823Z,99.90
2019-03-20T18:52:53.006Z,99.90
2019-03-20T18:55:21.188Z,99.90
2019-03-20T18:57:49.867Z,99.90
2019-03-20T19:00:23.483Z,99.90
2019-03-20T19:02:53.269Z,99.90
2019-03-20T19:05:40.811Z,99.90
2019-03-20T19:08:09.270Z,99.90
2019-03-20T19:10:37.856Z,99.90
2019-03-20T19:13:06.162Z,99.90
2019-03-20T19:15:35.966Z,99.90
2019-03-20T19:18:04.407Z,99.90
2019-03-20T19:20:32.791Z,99.90
2019-03-20T19:23:01.279Z,99.90
2019-03-20T19:25:29.888Z,99.90
2019-03-20T19:27:58.125Z,99.90
2019-03-20T19:30:26.717Z,99.90
2019-03-20T19:32:55.145Z,99.90
2019-03-20T19:35:23.562Z,99.90
2019-03-20T19:37:51.922Z,99.90
2019-03-20T19:40:20.432Z,99.90
2019-03-20T19:42:49.070Z,99.90
2019-03-20T19:45:18.269Z,99.90
2019-03-20T19:47:47.237Z,99.90
2019-03-20T19:50:16.807Z,99.90
2019-03-20T19:52:45.711Z,99.90
2019-03-20T19:55:14.383Z,99.90
2019-03-20T19:57:46.700Z,99.90
2019-03-20T20:00:56.215Z,99.90
2019-03-20T20:03:27.587Z,99.90
2019-03-20T20:05:58.494Z,99.90
2019-03-20T20:08:29.905Z,99.90
2019-03-20T20:10:59.262Z,99.90
2019-03-20T20:13:28.500Z,99.90
2019-03-20T20:15:57.222Z,99.90
2019-03-20T20:18:25.590Z,99.90
2019-03-20T20:20:54.220Z,99.90
2019-03-20T20:23:26.747Z,99.90
2019-03-20T20:25:55.712Z,99.90
2019-03-20T20:28:24.536Z,99.90
2019-03-20T20:30:53.828Z,99.90
2019-03-20T20:33:22.754Z,99.90
2019-03-20T20:35:52.289Z,99.90
2019-03-20T20:38:27.024Z,99.90
2019-03-20T20:40:56.405Z,99.90
2019-03-20T20:43:24.984Z,99.90
2019-03-20T20:45:53.861Z,99.90
2019-03-20T20:48:22.692Z,99.90
2019-03-20T20:50:52.314Z,99.90
2019-03-20T20:53:21.353Z,99.90
2019-03-20T20:55:51.257Z,99.90
2019-03-20T20:58:20.778Z,99.90
2019-03-20T21:00:49.101Z,99.90
2019-03-20T21:03:17.846Z,99.90
2019-03-20T21:05:48.250Z,99.90
2019-03-20T21:08:17.440Z,99.90
2019-03-20T21:10:46.794Z,99.90
2019-03-20T21:13:15.244Z,99.90
2019-03-20T21:15:50.872Z,99.90
2019-03-20T21:19:32.499Z,99.90
2019-03-20T21:23:02.571Z,99.90
2019-03-20T21:25:31.927Z,99.90
2019-03-20T21:29:15.188Z,99.90
2019-03-20T21:32:00.196Z,99.90
2019-03-20T21:35:15.135Z,99.90
2019-03-20T21:38:03.838Z,99.90
2019-03-20T21:41:25.762Z,99.90
2019-03-20T21:44:52.653Z,99.90
2019-03-20T21:47:32.334Z,99.90
2019-03-20T21:51:01.425Z,99.90
2019-03-20T21:54:28.282Z,99.90
2019-03-20T21:57:44.855Z,99.90
2019-03-20T22:01:14.877Z,99.90
2019-03-20T22:03:47.314Z,99.90
2019-03-20T22:07:04.898Z,99.90
2019-03-20T22:12:35.789Z,99.90
2019-03-20T22:15:18.195Z,99.90
2019-03-20T22:18:21.355Z,99.90
2019-03-20T22:21:25.916Z,99.90
2019-03-20T22:24:19.940Z,99.90
2019-03-20T22:27:53.491Z,99.90
2019-03-20T22:30:22.655Z,99.90
2019-03-20T22:33:46.925Z,99.90
2019-03-20T22:36:24.779Z,99.90
2019-03-20T22:40:07.873Z,99.90
2019-03-20T22:43:01.101Z,99.90
2019-03-20T22:46:26.103Z,99.90
2019-03-20T22:50:18.870Z,99.90
2019-03-20T22:53:48.337Z,99.90
2019-03-20T22:57:23.121Z,99.90
2019-03-20T22:59:51.893Z,99.90
2019-03-20T23:02:42.601Z,99.90
2019-03-20T23:05:11.863Z,99.90
2019-03-20T23:07:41.423Z,99.90
2019-03-20T23:10:12.978Z,99.90
2019-03-20T23:12:42.168Z,99.90
2019-03-20T23:15:14.822Z,99.90
2019-03-20T23:17:44.135Z,99.90
2019-03-20T23:20:16.658Z,99.90
2019-03-20T23:22:45.916Z,99.90
2019-03-20T23:25:14.904Z,99.90
2019-03-20T23:27:45.640Z,99.90
2019-03-20T23:30:19.649Z,99.90
2019-03-20T23:32:49.237Z,99.90
2019-03-20T23:35:18.346Z,99.90
2019-03-20T23:37:47.701Z,99.90
2019-03-20T23:40:16.830Z,99.90
2019-03-20T23:42:46.746Z,99.90
2019-03-20T23:45:16.785Z,99.90
2019-03-20T23:47:59.789Z,99.90
2019-03-20T23:50:29.327Z,99.90
2019-03-20T23:52:58.126Z,99.90
2019-03-20T23:55:27.611Z,99.90
2019-03-20T23:57:56.512Z,99.90
